Time;durP1;ratioP1;P1;durP2;ratioP2;P2;SDS_P1;SDS_P2;PMS_P1;PMS_P2;Temp;Humidity;BMP_temperature;BMP_pressure;BME280_temperature;BME280_humidity;BME280_pressure;Samples;Min_cycle;Max_cycle;Signal;HPM_P1;HPM_P2
2023/07/01 00:00:23;;;;;;;3.83;3.07;;;;;24.40;99793.00;;;;2054731;28;20242;-66
2023/07/01 00:01:24;;;;;;;3.60;3.10;;;;;24.50;99789.00;;;;2063579;28;20250;-66
2023/07/01 00:02:24;;;;;;;4.40;3.30;;;;;24.50;99786.00;;;;2048837;28;21220;-66
2023/07/01 00:03:30;;;;;;;5.73;3.07;;;;;24.50;99784.00;;;;2055898;28;20278;-66
2023/07/01 00:04:30;;;;;;;4.75;3.20;;;;;24.50;99784.00;;;;2068676;28;20245;-66
2023/07/01 00:05:30;;;;;;;3.53;3.23;;;;;24.40;99793.00;;;;2065014;28;20574;-66
2023/07/01 00:06:30;;;;;;;5.90;3.37;;;;;24.40;99783.00;;;;2045279;28;20659;-66
2023/07/01 00:07:31;;;;;;;3.50;2.93;;;;;24.40;99789.00;;;;2062746;28;20241;-66
2023/07/01 00:08:31;;;;;;;3.23;2.93;;;;;24.50;99783.00;;;;2063950;28;20215;-66
2023/07/01 00:09:31;;;;;;;4.67;2.90;;;;;24.50;99779.00;;;;2062441;28;20242;-66
2023/07/01 00:10:32;;;;;;;4.13;3.13;;;;;24.50;99783.00;;;;2065866;28;20238;-66
2023/07/01 00:11:32;;;;;;;5.20;3.00;;;;;24.50;99776.00;;;;2046347;28;20222;-66
2023/07/01 00:12:32;;;;;;;8.70;3.53;;;;;24.40;99778.00;;;;2063202;28;20206;-66
2023/07/01 00:13:33;;;;;;;7.70;3.10;;;;;24.40;99776.00;;;;2064984;28;20214;-66
2023/07/01 00:14:33;;;;;;;6.07;3.33;;;;;24.40;99777.00;;;;2062711;28;20226;-66
2023/07/01 00:15:34;;;;;;;6.90;3.33;;;;;24.50;99776.00;;;;2068049;28;20686;-66
2023/07/01 00:16:34;;;;;;;5.30;3.60;;;;;24.40;99772.00;;;;2043183;28;20219;-66
2023/07/01 00:17:34;;;;;;;5.10;3.73;;;;;24.40;99765.00;;;;2047108;28;20659;-66
2023/07/01 00:18:35;;;;;;;4.60;3.23;;;;;24.40;99767.00;;;;2057741;28;20722;-66
2023/07/01 00:19:35;;;;;;;4.70;3.00;;;;;24.40;99766.00;;;;2063532;28;20261;-66
2023/07/01 00:20:35;;;;;;;6.00;2.93;;;;;24.40;99773.00;;;;2069396;28;20735;-66
2023/07/01 00:21:36;;;;;;;5.73;2.90;;;;;24.40;99771.00;;;;2053782;28;20216;-66
2023/07/01 00:22:36;;;;;;;4.43;3.60;;;;;24.40;99765.00;;;;2063678;28;20237;-66
2023/07/01 00:23:36;;;;;;;3.93;3.00;;;;;24.40;99766.00;;;;2064022;28;20207;-67
2023/07/01 00:24:37;;;;;;;4.97;2.90;;;;;24.40;99774.00;;;;2056825;28;20218;-67
2023/07/01 00:25:37;;;;;;;2.90;2.43;;;;;24.40;99767.00;;;;2069702;28;20214;-67
2023/07/01 00:26:37;;;;;;;4.73;2.80;;;;;24.30;99769.00;;;;2053508;28;20217;-67
2023/07/01 00:27:38;;;;;;;3.30;3.00;;;;;24.40;99763.00;;;;2063717;28;20219;-67
2023/07/01 00:28:38;;;;;;;3.33;2.57;;;;;24.40;99760.00;;;;2061341;28;20207;-66
2023/07/01 00:29:38;;;;;;;6.23;3.10;;;;;24.40;99759.00;;;;2058627;28;20646;-66
2023/07/01 00:30:39;;;;;;;3.30;2.90;;;;;24.40;99762.00;;;;2067045;28;20718;-66
2023/07/01 00:31:39;;;;;;;3.30;3.00;;;;;24.40;99752.00;;;;2055409;28;20586;-66
2023/07/01 00:32:39;;;;;;;5.47;2.83;;;;;24.40;99752.00;;;;2061060;28;20261;-66
2023/07/01 00:33:40;;;;;;;3.23;2.60;;;;;24.30;99751.00;;;;2063485;28;20282;-66
2023/07/01 00:34:40;;;;;;;4.10;2.87;;;;;24.40;99750.00;;;;2064676;28;20206;-66
2023/07/01 00:35:40;;;;;;;5.93;2.77;;;;;24.40;99749.00;;;;2062944;28;20219;-66
2023/07/01 00:36:41;;;;;;;6.43;3.40;;;;;24.40;99750.00;;;;2048319;28;20221;-66
2023/07/01 00:37:41;;;;;;;3.80;2.93;;;;;24.30;99752.00;;;;2054027;28;20239;-66
2023/07/01 00:38:41;;;;;;;3.03;2.70;;;;;24.30;99755.00;;;;2063124;28;20226;-66
2023/07/01 00:39:42;;;;;;;4.97;3.10;;;;;24.30;99747.00;;;;2064851;28;20206;-66
2023/07/01 00:40:42;;;;;;;3.80;3.03;;;;;24.30;99745.00;;;;2063645;28;20222;-66
2023/07/01 00:41:44;;;;;;;4.33;3.13;;;;;24.40;99740.00;;;;2058337;28;20218;-66
2023/07/01 00:42:45;;;;;;;7.25;3.15;;;;;24.40;99745.00;;;;2057173;28;20250;-66
2023/07/01 00:43:45;;;;;;;2.90;2.50;;;;;24.30;99743.00;;;;2039085;29;20217;-66
2023/07/01 00:44:45;;;;;;;3.10;2.70;;;;;24.30;99743.00;;;;2046058;28;20701;-66
2023/07/01 00:45:46;;;;;;;5.43;3.17;;;;;24.30;99744.00;;;;2063907;28;20254;-66
2023/07/01 00:46:46;;;;;;;3.30;2.57;;;;;24.30;99746.00;;;;2056537;28;20226;-66
2023/07/01 00:47:46;;;;;;;3.70;2.47;;;;;24.30;99743.00;;;;2052164;28;20212;-66
2023/07/01 00:48:46;;;;;;;2.80;2.50;;;;;24.30;99735.00;;;;2046939;28;20564;-66
2023/07/01 00:49:47;;;;;;;2.90;2.43;;;;;24.00;99743.00;;;;2060548;28;20722;-66
2023/07/01 00:50:47;;;;;;;4.00;3.03;;;;;24.30;99737.00;;;;2052340;28;20692;-66
2023/07/01 00:51:47;;;;;;;4.00;2.40;;;;;24.30;99738.00;;;;2042744;28;20857;-66
2023/07/01 00:52:48;;;;;;;4.43;2.93;;;;;24.30;99732.00;;;;2061675;28;20251;-66
2023/07/01 00:53:48;;;;;;;2.70;2.30;;;;;24.30;99739.00;;;;2052954;28;20212;-66
2023/07/01 00:54:49;;;;;;;3.10;2.60;;;;;24.30;99729.00;;;;2051134;28;20231;-65
2023/07/01 00:55:49;;;;;;;2.87;2.57;;;;;24.30;99733.00;;;;2049026;28;20200;-65
2023/07/01 00:56:49;;;;;;;3.03;2.40;;;;;24.30;99730.00;;;;2043023;28;20239;-65
2023/07/01 00:57:50;;;;;;;5.00;2.80;;;;;24.30;99714.00;;;;2062001;28;20208;-65
2023/07/01 00:58:50;;;;;;;3.43;2.20;;;;;24.30;99727.00;;;;2061635;28;20377;-65
2023/07/01 00:59:50;;;;;;;3.20;2.90;;;;;24.30;99731.00;;;;2062843;28;20246;-65
2023/07/01 01:00:51;;;;;;;3.30;2.40;;;;;24.30;99721.00;;;;2057847;28;20203;-65
2023/07/01 01:01:51;;;;;;;3.23;2.93;;;;;24.30;99725.00;;;;2053064;28;20229;-65
2023/07/01 01:03:21;;;;;;;3.13;2.83;;;;;24.30;99728.00;;;;2047393;28;20208;-65
2023/07/01 01:04:33;;;;;;;4.20;2.63;;;;;24.30;99718.00;;;;2044229;28;20207;-66
2023/07/01 01:05:37;;;;;;;3.08;2.50;;;;;24.30;99695.00;;;;2054943;28;20971;-66
2023/07/01 01:06:41;;;;;;;6.15;3.38;;;;;24.30;99723.00;;;;2044874;28;20215;-66
2023/07/01 01:07:47;;;;;;;2.80;2.60;;;;;24.30;99719.00;;;;2045108;28;20296;-66
2023/07/01 01:09:10;;;;;;;6.15;2.97;;;;;24.30;99713.00;;;;2050923;28;20723;-66
2023/07/01 01:10:13;;;;;;;2.50;2.30;;;;;24.30;99689.00;;;;2052139;28;20223;-66
2023/07/01 01:11:13;;;;;;;3.53;2.85;;;;;24.30;99709.00;;;;2041399;28;20231;-66
2023/07/01 01:12:14;;;;;;;3.43;2.10;;;;;24.30;99716.00;;;;2040740;28;20298;-66
2023/07/01 01:13:14;;;;;;;3.00;2.57;;;;;24.30;99717.00;;;;2053246;28;20438;-66
2023/07/01 01:14:15;;;;;;;2.80;2.40;;;;;24.30;99706.00;;;;2054866;28;20280;-66
2023/07/01 01:15:15;;;;;;;4.07;2.67;;;;;24.30;99704.00;;;;2054156;28;20211;-66
2023/07/01 01:16:16;;;;;;;2.70;2.47;;;;;24.30;99705.00;;;;2054080;28;20450;-66
2023/07/01 01:17:16;;;;;;;4.30;2.50;;;;;24.20;99709.00;;;;2047614;28;20215;-66
2023/07/01 01:18:16;;;;;;;3.03;2.73;;;;;24.30;99706.00;;;;2061806;28;20214;-66
2023/07/01 01:19:21;;;;;;;3.10;2.50;;;;;24.30;99711.00;;;;2056476;28;20822;-66
2023/07/01 01:20:22;;;;;;;2.88;2.55;;;;;24.30;99697.00;;;;2034383;28;20239;-66
2023/07/01 01:21:23;;;;;;;3.00;2.50;;;;;24.30;99674.00;;;;2040281;28;20716;-66
2023/07/01 01:22:30;;;;;;;3.33;2.43;;;;;24.30;99698.00;;;;2046418;28;20458;-66
2023/07/01 01:23:34;;;;;;;3.35;2.50;;;;;24.30;99703.00;;;;2039163;28;20260;-66
2023/07/01 01:24:35;;;;;;;2.33;2.15;;;;;24.30;99681.00;;;;2043084;28;20231;-66
2023/07/01 01:25:39;;;;;;;2.70;2.43;;;;;24.30;99699.00;;;;2046989;28;20216;-66
2023/07/01 01:26:40;;;;;;;3.10;2.50;;;;;24.30;99693.00;;;;2037313;28;20216;-67
2023/07/01 01:27:40;;;;;;;2.97;2.57;;;;;24.30;99687.00;;;;2058967;28;20210;-67
2023/07/01 01:28:40;;;;;;;4.13;2.90;;;;;24.30;99681.00;;;;2063033;28;20512;-67
2023/07/01 01:29:41;;;;;;;2.47;2.20;;;;;24.20;99685.00;;;;2052892;28;20204;-67
2023/07/01 01:30:41;;;;;;;3.57;2.40;;;;;24.20;99680.00;;;;2050891;28;20207;-67
2023/07/01 01:31:41;;;;;;;2.63;2.40;;;;;24.30;99687.00;;;;2036938;28;20255;-67
2023/07/01 01:32:42;;;;;;;4.13;2.50;;;;;24.30;99676.00;;;;2059679;28;20211;-67
2023/07/01 01:33:42;;;;;;;3.30;2.80;;;;;24.30;99676.00;;;;2061577;28;20206;-67
2023/07/01 01:34:42;;;;;;;4.33;2.93;;;;;24.30;99670.00;;;;2062422;28;20207;-67
2023/07/01 01:35:43;;;;;;;2.70;2.50;;;;;24.30;99668.00;;;;2068731;28;20348;-67
2023/07/01 01:36:47;;;;;;;4.90;3.00;;;;;24.20;99668.00;;;;2044095;28;20207;-67
2023/07/01 01:37:52;;;;;;;6.20;2.72;;;;;24.20;99670.00;;;;2039319;29;20476;-67
2023/07/01 01:38:52;;;;;;;3.38;2.70;;;;;24.20;99665.00;;;;2051531;28;20220;-67
2023/07/01 01:39:55;;;;;;;3.90;2.80;;;;;24.20;99662.00;;;;2044961;28;20269;-67
2023/07/01 01:41:06;;;;;;;3.00;2.70;;;;;24.20;99657.00;;;;2035531;29;20233;-67
2023/07/01 01:42:08;;;;;;;3.20;2.85;;;;;24.30;99665.00;;;;2037388;28;20691;-67
2023/07/01 01:43:17;;;;;;;3.35;2.42;;;;;24.20;99666.00;;;;2046541;28;20227;-67
2023/07/01 01:44:22;;;;;;;3.65;2.55;;;;;24.20;99657.00;;;;2048846;28;20212;-67
2023/07/01 01:45:22;;;;;;;2.80;2.40;;;;;24.20;99666.00;;;;2055800;28;20232;-67
2023/07/01 01:46:24;;;;;;;3.57;2.43;;;;;24.20;99638.00;;;;2045509;28;20279;-67
2023/07/01 01:47:28;;;;;;;2.70;2.50;;;;;24.30;99663.00;;;;2036979;28;20224;-67
2023/07/01 01:48:29;;;;;;;5.30;2.50;;;;;24.20;99658.00;;;;2046128;28;20220;-66
2023/07/01 01:49:29;;;;;;;2.83;2.20;;;;;24.20;99653.00;;;;2039344;28;20205;-66
2023/07/01 01:50:30;;;;;;;3.70;2.97;;;;;24.20;99653.00;;;;2040148;28;20248;-67
2023/07/01 01:51:30;;;;;;;3.53;3.07;;;;;24.20;99659.00;;;;2046507;28;20227;-67
2023/07/01 01:52:31;;;;;;;2.50;2.30;;;;;24.20;99622.00;;;;2026499;29;20461;-67
2023/07/01 01:53:31;;;;;;;3.80;2.43;;;;;24.20;99623.00;;;;2046550;28;20232;-67
2023/07/01 01:54:32;;;;;;;2.90;2.40;;;;;24.30;99651.00;;;;2046113;28;20275;-67
2023/07/01 01:55:32;;;;;;;3.20;2.57;;;;;24.30;99657.00;;;;2035793;29;20269;-67
2023/07/01 01:56:32;;;;;;;2.90;2.40;;;;;24.20;99628.00;;;;2033690;28;20263;-67
2023/07/01 01:57:32;;;;;;;4.07;2.60;;;;;24.20;99648.00;;;;2044430;28;20256;-67
2023/07/01 01:58:33;;;;;;;2.50;2.30;;;;;24.20;99652.00;;;;2040140;29;20216;-67
2023/07/01 01:59:33;;;;;;;2.90;2.63;;;;;24.20;99645.00;;;;2044726;28;20263;-67
2023/07/01 02:00:34;;;;;;;2.50;2.30;;;;;24.20;99646.00;;;;2061767;28;20566;-67
2023/07/01 02:01:38;;;;;;;2.60;2.30;;;;;24.20;99640.00;;;;2051190;28;20640;-67
2023/07/01 02:02:38;;;;;;;2.80;2.53;;;;;24.20;99639.00;;;;2045947;28;20208;-67
2023/07/01 02:03:38;;;;;;;3.67;2.70;;;;;24.20;99638.00;;;;2054586;28;20273;-67
2023/07/01 02:04:39;;;;;;;2.67;2.40;;;;;24.20;99629.00;;;;2060901;28;20246;-67
2023/07/01 02:05:39;;;;;;;3.73;2.40;;;;;24.20;99638.00;;;;2063983;28;20211;-67
2023/07/01 02:06:39;;;;;;;2.53;2.30;;;;;24.20;99634.00;;;;2059940;28;20214;-67
2023/07/01 02:07:40;;;;;;;5.90;2.50;;;;;24.20;99638.00;;;;2057890;28;20275;-66
2023/07/01 02:08:40;;;;;;;3.13;2.60;;;;;24.20;99639.00;;;;2052977;28;20208;-66
2023/07/01 02:09:40;;;;;;;2.90;2.50;;;;;24.30;99625.00;;;;2060608;28;20687;-66
2023/07/01 02:10:41;;;;;;;3.10;2.30;;;;;24.30;99624.00;;;;2063164;28;20578;-66
2023/07/01 02:11:43;;;;;;;2.50;2.07;;;;;24.20;99620.00;;;;2052668;28;21034;-66
2023/07/01 02:12:43;;;;;;;6.70;2.90;;;;;24.20;99622.00;;;;2059848;28;20250;-66
2023/07/01 02:13:43;;;;;;;2.97;2.17;;;;;24.20;99625.00;;;;2061673;28;20219;-66
2023/07/01 02:14:44;;;;;;;2.30;2.10;;;;;24.20;99625.00;;;;2064423;28;20246;-66
2023/07/01 02:15:44;;;;;;;4.67;2.30;;;;;24.20;99619.00;;;;2065226;28;20648;-66
2023/07/01 02:16:44;;;;;;;4.37;2.43;;;;;24.20;99629.00;;;;2052137;28;20219;-66
2023/07/01 02:17:45;;;;;;;3.90;2.30;;;;;24.20;99623.00;;;;2067697;28;20214;-66
2023/07/01 02:18:45;;;;;;;3.17;2.57;;;;;24.20;99620.00;;;;2064109;28;20211;-67
2023/07/01 02:19:45;;;;;;;3.67;2.57;;;;;24.20;99623.00;;;;2064771;28;20264;-66
2023/07/01 02:20:45;;;;;;;2.80;2.50;;;;;24.20;99628.00;;;;2066984;28;20218;-66
2023/07/01 02:21:46;;;;;;;2.73;2.53;;;;;24.20;99631.00;;;;2053107;28;20218;-67
2023/07/01 02:22:46;;;;;;;2.53;2.30;;;;;24.20;99610.00;;;;2070607;28;20212;-67
2023/07/01 02:23:46;;;;;;;4.20;2.30;;;;;24.30;99609.00;;;;2063682;28;20215;-66
2023/07/01 02:24:47;;;;;;;2.80;2.07;;;;;24.30;99617.00;;;;2062683;28;20225;-66
2023/07/01 02:25:47;;;;;;;3.60;2.60;;;;;24.20;99618.00;;;;2054673;28;20219;-66
2023/07/01 02:26:50;;;;;;;4.10;2.90;;;;;24.20;99613.00;;;;2043821;28;20264;-66
2023/07/01 02:27:50;;;;;;;5.32;2.58;;;;;24.30;99619.00;;;;2069854;28;20214;-66
2023/07/01 02:28:51;;;;;;;4.03;2.33;;;;;24.30;99619.00;;;;2061519;28;20302;-66
2023/07/01 02:29:51;;;;;;;3.43;2.40;;;;;24.30;99618.00;;;;2063940;28;20215;-66
2023/07/01 02:30:53;;;;;;;4.10;2.30;;;;;24.20;99617.00;;;;2062223;28;20211;-66
2023/07/01 02:31:53;;;;;;;4.53;3.03;;;;;24.30;99613.00;;;;2047147;28;20735;-66
2023/07/01 02:32:53;;;;;;;5.73;2.40;;;;;24.30;99611.00;;;;2063546;28;20222;-66
2023/07/01 02:34:00;;;;;;;3.63;2.43;;;;;24.30;99617.00;;;;2056872;28;20254;-66
2023/07/01 02:35:01;;;;;;;3.42;2.45;;;;;24.30;99615.00;;;;2049729;28;20211;-66
2023/07/01 02:36:01;;;;;;;2.93;2.47;;;;;24.30;99613.00;;;;2054667;28;20298;-66
2023/07/01 02:37:02;;;;;;;4.07;2.33;;;;;24.30;99620.00;;;;2053483;28;20672;-66
2023/07/01 02:38:02;;;;;;;3.73;2.40;;;;;24.30;99623.00;;;;2064492;28;20843;-66
2023/07/01 02:39:02;;;;;;;6.70;3.00;;;;;24.30;99616.00;;;;2065976;28;20252;-66
2023/07/01 02:40:04;;;;;;;6.33;2.10;;;;;24.30;99616.00;;;;2067277;28;20210;-66
2023/07/01 02:41:04;;;;;;;3.80;2.35;;;;;24.30;99616.00;;;;2068503;28;20229;-66
2023/07/01 02:42:05;;;;;;;5.20;2.73;;;;;24.30;99622.00;;;;2057866;28;20219;-66
2023/07/01 02:43:06;;;;;;;2.73;2.40;;;;;24.20;99620.00;;;;2067665;28;20327;-66
2023/07/01 02:44:06;;;;;;;4.00;2.70;;;;;24.20;99625.00;;;;2060235;28;20551;-66
2023/07/01 02:45:07;;;;;;;3.07;2.17;;;;;24.20;99613.00;;;;2064442;28;20211;-66
2023/07/01 02:46:07;;;;;;;4.73;2.70;;;;;24.20;99615.00;;;;2055892;28;20636;-66
2023/07/01 02:47:07;;;;;;;3.70;2.73;;;;;24.30;99609.00;;;;2042808;28;20239;-66
2023/07/01 02:48:08;;;;;;;2.90;2.17;;;;;24.20;99615.00;;;;2064183;28;20216;-66
2023/07/01 02:49:08;;;;;;;2.60;2.40;;;;;24.20;99613.00;;;;2065281;28;20622;-66
2023/07/01 02:50:09;;;;;;;2.33;2.13;;;;;24.20;99613.00;;;;2064242;28;20588;-66
2023/07/01 02:51:09;;;;;;;4.00;2.40;;;;;24.20;99614.00;;;;2064017;28;20222;-66
2023/07/01 02:52:10;;;;;;;3.77;2.53;;;;;24.20;99612.00;;;;2053517;28;20230;-66
2023/07/01 02:53:10;;;;;;;3.53;2.90;;;;;24.20;99608.00;;;;2064379;28;20215;-66
2023/07/01 02:54:10;;;;;;;4.33;2.60;;;;;24.30;99606.00;;;;2063368;28;20254;-66
2023/07/01 02:55:11;;;;;;;2.90;2.20;;;;;24.20;99611.00;;;;2064295;28;20683;-66
2023/07/01 02:56:11;;;;;;;3.30;2.63;;;;;24.20;99611.00;;;;2063737;28;20215;-66
2023/07/01 02:57:11;;;;;;;3.50;2.50;;;;;24.20;99604.00;;;;2052501;28;20582;-66
2023/07/01 02:58:12;;;;;;;2.33;2.00;;;;;24.20;99607.00;;;;2064131;28;20770;-66
2023/07/01 02:59:12;;;;;;;3.77;2.50;;;;;24.30;99601.00;;;;2065047;28;20272;-66
2023/07/01 03:00:14;;;;;;;2.70;2.17;;;;;24.30;99604.00;;;;2065272;28;20227;-66
2023/07/01 03:01:14;;;;;;;3.70;2.20;;;;;24.30;99603.00;;;;2067854;28;20215;-66
2023/07/01 03:02:14;;;;;;;3.10;2.33;;;;;24.20;99609.00;;;;2057137;28;20233;-66
2023/07/01 03:03:14;;;;;;;3.63;2.40;;;;;24.20;99610.00;;;;2065840;28;20219;-66
2023/07/01 03:04:15;;;;;;;2.97;2.20;;;;;24.20;99613.00;;;;2065319;28;20273;-66
2023/07/01 03:05:19;;;;;;;2.80;2.30;;;;;24.20;99605.00;;;;2066524;28;20215;-66
2023/07/01 03:06:19;;;;;;;2.70;2.50;;;;;24.20;99607.00;;;;2064222;28;20222;-66
2023/07/01 03:07:19;;;;;;;3.87;2.60;;;;;24.20;99605.00;;;;2055888;28;20215;-66
2023/07/01 03:08:20;;;;;;;3.00;2.40;;;;;24.20;99600.00;;;;2064682;28;20207;-66
2023/07/01 03:09:20;;;;;;;2.47;2.27;;;;;24.20;99609.00;;;;2064638;28;20292;-66
2023/07/01 03:10:20;;;;;;;2.73;2.50;;;;;24.20;99618.00;;;;2065460;28;20207;-66
2023/07/01 03:11:21;;;;;;;3.00;2.47;;;;;24.20;99607.00;;;;2060197;28;20215;-66
2023/07/01 03:12:21;;;;;;;2.87;2.27;;;;;24.20;99604.00;;;;2054663;28;20271;-66
2023/07/01 03:13:21;;;;;;;5.20;3.03;;;;;24.20;99596.00;;;;2063746;28;20215;-66
2023/07/01 03:14:22;;;;;;;3.00;2.20;;;;;24.20;99606.00;;;;2068842;28;20206;-66
2023/07/01 03:15:22;;;;;;;3.53;2.53;;;;;24.20;99607.00;;;;2063236;28;20203;-66
2023/07/01 03:16:22;;;;;;;3.47;2.73;;;;;24.20;99601.00;;;;2064256;28;20210;-66
2023/07/01 03:21:16;;;;;;;2.20;2.00;;;;;24.10;99600.00;;;;2060251;28;20265;-66
2023/07/01 03:22:16;;;;;;;2.73;2.50;;;;;24.20;99596.00;;;;2050859;28;20223;-66
2023/07/01 03:23:17;;;;;;;2.43;2.20;;;;;24.20;99602.00;;;;2064304;28;20304;-66
2023/07/01 03:24:17;;;;;;;2.30;2.10;;;;;24.20;99595.00;;;;2065813;28;20221;-66
2023/07/01 03:25:18;;;;;;;2.37;2.17;;;;;24.20;99596.00;;;;2064463;28;20225;-66
2023/07/01 03:26:18;;;;;;;2.50;2.23;;;;;24.10;99593.00;;;;2066605;28;20249;-66
2023/07/01 03:27:18;;;;;;;2.60;2.10;;;;;24.20;99597.00;;;;2053278;28;20242;-66
2023/07/01 03:28:18;;;;;;;3.00;2.20;;;;;24.20;99593.00;;;;2065277;28;20214;-66
2023/07/01 03:29:19;;;;;;;4.43;2.03;;;;;24.20;99586.00;;;;2065787;28;20218;-66
2023/07/01 03:30:21;;;;;;;2.70;2.37;;;;;24.10;99588.00;;;;2068576;28;20214;-66
2023/07/01 03:31:22;;;;;;;2.42;2.22;;;;;24.10;99591.00;;;;2065904;28;20218;-66
2023/07/01 03:32:22;;;;;;;3.67;2.43;;;;;24.10;99586.00;;;;2046257;28;20219;-66
2023/07/01 03:33:24;;;;;;;3.00;2.10;;;;;24.10;99588.00;;;;2052486;28;20591;-66
2023/07/01 03:34:25;;;;;;;3.05;2.17;;;;;24.10;99584.00;;;;2060733;28;20278;-66
2023/07/01 03:35:26;;;;;;;2.92;2.40;;;;;24.20;99580.00;;;;2070101;28;20210;-66
2023/07/01 03:36:26;;;;;;;2.70;2.40;;;;;24.20;99584.00;;;;2064650;28;20207;-66
2023/07/01 03:37:26;;;;;;;2.97;2.10;;;;;24.20;99576.00;;;;2054322;28;20214;-66
2023/07/01 03:38:27;;;;;;;2.40;2.03;;;;;24.20;99579.00;;;;2066521;28;20214;-66
2023/07/01 03:39:27;;;;;;;3.07;2.50;;;;;24.10;99580.00;;;;2061937;28;20227;-67
2023/07/01 03:40:27;;;;;;;3.03;2.50;;;;;24.10;99579.00;;;;2064548;28;20219;-66
2023/07/01 03:41:28;;;;;;;3.33;2.70;;;;;24.10;99583.00;;;;2063449;28;20215;-66
2023/07/01 03:42:28;;;;;;;3.07;2.13;;;;;24.10;99579.00;;;;2054046;28;20219;-66
2023/07/01 03:43:29;;;;;;;3.67;2.03;;;;;24.20;99582.00;;;;2065626;28;20566;-66
2023/07/01 03:44:29;;;;;;;3.60;2.40;;;;;24.10;99574.00;;;;2064689;28;20611;-66
2023/07/01 03:45:29;;;;;;;3.73;2.50;;;;;24.20;99570.00;;;;2064973;28;20207;-66
2023/07/01 03:46:30;;;;;;;2.47;2.17;;;;;24.10;99572.00;;;;2063973;28;20264;-66
2023/07/01 03:47:30;;;;;;;4.43;2.90;;;;;24.10;99571.00;;;;2048067;28;20223;-66
2023/07/01 03:48:30;;;;;;;2.80;2.33;;;;;24.10;99572.00;;;;2061237;28;20241;-66
2023/07/01 03:49:31;;;;;;;2.97;2.20;;;;;24.10;99576.00;;;;2066104;28;20219;-66
2023/07/01 03:50:31;;;;;;;2.93;2.57;;;;;24.10;99584.00;;;;2063294;28;20376;-66
2023/07/01 03:51:32;;;;;;;3.03;2.73;;;;;24.10;99580.00;;;;2063064;28;20356;-66
2023/07/01 03:52:33;;;;;;;3.10;2.72;;;;;24.10;99572.00;;;;2053362;28;20691;-66
2023/07/01 03:53:33;;;;;;;2.07;1.80;;;;;24.10;99572.00;;;;2063361;28;20235;-66
2023/07/01 03:54:34;;;;;;;3.90;2.37;;;;;24.10;99569.00;;;;2066501;28;20222;-66
2023/07/01 03:55:34;;;;;;;2.23;2.00;;;;;24.10;99570.00;;;;2063659;28;20230;-66
2023/07/01 03:56:34;;;;;;;3.00;2.17;;;;;24.10;99567.00;;;;2057621;28;20226;-66
2023/07/01 03:57:34;;;;;;;2.77;2.13;;;;;24.10;99565.00;;;;2064243;28;20285;-66
2023/07/01 03:58:35;;;;;;;2.10;1.77;;;;;24.20;99567.00;;;;2062583;28;20333;-66
2023/07/01 03:59:35;;;;;;;2.67;2.17;;;;;24.10;99557.00;;;;2065850;28;20222;-66
2023/07/01 04:00:35;;;;;;;3.00;2.70;;;;;24.10;99549.00;;;;2063605;28;20219;-66
2023/07/01 04:01:36;;;;;;;3.43;2.00;;;;;24.10;99554.00;;;;2056021;28;20222;-66
2023/07/01 04:02:37;;;;;;;2.47;1.93;;;;;24.10;99552.00;;;;2062735;28;20225;-66
2023/07/01 04:03:37;;;;;;;2.40;2.20;;;;;24.10;99545.00;;;;2063843;28;20218;-66
2023/07/01 04:04:38;;;;;;;2.67;2.10;;;;;24.10;99547.00;;;;2062036;28;20250;-66
2023/07/01 04:05:38;;;;;;;2.93;2.40;;;;;24.10;99543.00;;;;2063870;28;20218;-66
2023/07/01 04:06:39;;;;;;;2.73;2.03;;;;;24.10;99543.00;;;;2046807;28;20226;-66
2023/07/01 04:07:40;;;;;;;2.80;1.90;;;;;24.10;99548.00;;;;2062298;28;20219;-66
2023/07/01 04:08:40;;;;;;;2.47;2.20;;;;;24.10;99537.00;;;;2054376;28;20274;-66
2023/07/01 04:09:40;;;;;;;2.30;2.10;;;;;24.10;99545.00;;;;2062853;28;20446;-66
2023/07/01 04:10:41;;;;;;;3.07;2.30;;;;;24.10;99532.00;;;;2058748;28;20228;-66
2023/07/01 04:11:41;;;;;;;2.40;2.20;;;;;24.10;99541.00;;;;2053137;28;20258;-66
2023/07/01 04:12:41;;;;;;;2.83;2.20;;;;;24.10;99547.00;;;;2068116;28;20218;-66
2023/07/01 04:13:42;;;;;;;2.40;2.20;;;;;24.10;99537.00;;;;2063118;28;20561;-66
2023/07/01 04:14:42;;;;;;;3.07;2.77;;;;;24.10;99531.00;;;;2059676;28;20641;-66
2023/07/01 04:15:42;;;;;;;2.40;2.20;;;;;24.10;99529.00;;;;2066086;28;20690;-66
2023/07/01 04:16:46;;;;;;;2.57;2.10;;;;;24.10;99529.00;;;;2052699;28;20218;-66
2023/07/01 04:17:48;;;;;;;2.35;2.15;;;;;24.10;99529.00;;;;2066253;28;20217;-66
2023/07/01 04:18:48;;;;;;;3.05;2.20;;;;;24.10;99533.00;;;;2062994;28;20226;-66
2023/07/01 04:19:49;;;;;;;2.77;1.83;;;;;24.10;99524.00;;;;2062328;28;20250;-66
2023/07/01 04:20:49;;;;;;;3.70;2.33;;;;;24.10;99525.00;;;;2062288;28;20215;-66
2023/07/01 04:21:49;;;;;;;3.33;2.00;;;;;24.10;99525.00;;;;2051363;28;20234;-66
2023/07/01 04:22:50;;;;;;;2.50;2.30;;;;;24.10;99525.00;;;;2068768;28;20599;-66
2023/07/01 04:23:50;;;;;;;3.17;1.97;;;;;24.10;99536.00;;;;2063169;28;20577;-66
2023/07/01 04:24:50;;;;;;;2.27;2.07;;;;;24.10;99534.00;;;;2055577;28;20657;-66
2023/07/01 04:25:51;;;;;;;2.63;2.10;;;;;24.10;99514.00;;;;2059588;28;20707;-66
2023/07/01 04:26:52;;;;;;;2.13;1.93;;;;;24.10;99521.00;;;;2048816;28;20243;-66
2023/07/01 04:27:52;;;;;;;2.10;1.90;;;;;24.10;99520.00;;;;2067846;28;20230;-66
2023/07/01 04:28:52;;;;;;;3.40;2.23;;;;;24.10;99526.00;;;;2063717;28;20493;-66
2023/07/01 04:29:53;;;;;;;2.57;2.37;;;;;24.10;99525.00;;;;2063688;28;20219;-66
2023/07/01 04:30:53;;;;;;;4.13;2.73;;;;;24.10;99528.00;;;;2061642;28;20213;-66
2023/07/01 04:31:53;;;;;;;2.07;1.87;;;;;24.10;99529.00;;;;2049354;28;20231;-66
2023/07/01 04:32:54;;;;;;;2.80;2.13;;;;;24.10;99525.00;;;;2061776;28;20205;-66
2023/07/01 04:33:55;;;;;;;2.60;1.77;;;;;24.10;99521.00;;;;2067303;28;20203;-66
2023/07/01 04:34:55;;;;;;;3.03;2.37;;;;;24.10;99518.00;;;;2062169;28;20292;-66
2023/07/01 04:35:55;;;;;;;1.93;1.70;;;;;24.10;99525.00;;;;2063702;28;20530;-66
2023/07/01 04:36:56;;;;;;;2.50;2.30;;;;;24.10;99517.00;;;;2055319;28;20226;-66
2023/07/01 04:37:56;;;;;;;2.50;2.00;;;;;24.10;99509.00;;;;2059181;28;20207;-66
2023/07/01 04:38:56;;;;;;;2.43;2.23;;;;;24.10;99522.00;;;;2063390;28;20621;-66
2023/07/01 04:39:57;;;;;;;2.43;2.20;;;;;24.10;99522.00;;;;2060962;28;20269;-66
2023/07/01 04:40:57;;;;;;;2.73;2.30;;;;;24.10;99514.00;;;;2067217;28;20233;-66
2023/07/01 04:41:57;;;;;;;4.00;2.43;;;;;24.10;99514.00;;;;2052629;28;20230;-66
2023/07/01 04:42:58;;;;;;;2.53;2.07;;;;;24.10;99508.00;;;;2061617;28;20210;-66
2023/07/01 04:43:58;;;;;;;2.40;2.20;;;;;24.10;99513.00;;;;2069300;28;20257;-66
2023/07/01 04:44:58;;;;;;;1.83;1.70;;;;;24.10;99512.00;;;;2062592;28;20210;-66
2023/07/01 04:46:00;;;;;;;2.43;2.07;;;;;24.10;99499.00;;;;2063571;28;20226;-66
2023/07/01 04:47:00;;;;;;;3.47;1.90;;;;;24.10;99510.00;;;;2051724;28;25070;-66
2023/07/01 04:48:01;;;;;;;4.30;1.83;;;;;24.10;99501.00;;;;2059840;28;20292;-66
2023/07/01 04:49:01;;;;;;;4.00;2.20;;;;;24.10;99504.00;;;;2057097;28;20219;-66
2023/07/01 04:50:02;;;;;;;2.90;1.90;;;;;24.00;99499.00;;;;2054908;28;20257;-66
2023/07/01 04:51:02;;;;;;;2.67;2.15;;;;;24.10;99504.00;;;;2063167;28;20219;-66
2023/07/01 04:52:03;;;;;;;3.10;2.20;;;;;24.10;99506.00;;;;2052644;28;20328;-66
2023/07/01 04:53:03;;;;;;;3.17;1.93;;;;;24.10;99514.00;;;;2061373;28;20238;-66
2023/07/01 04:54:04;;;;;;;2.60;2.23;;;;;24.10;99501.00;;;;2060941;28;20273;-66
2023/07/01 04:55:05;;;;;;;1.90;1.70;;;;;24.10;99499.00;;;;2067469;28;20733;-66
2023/07/01 04:56:05;;;;;;;4.00;2.30;;;;;24.10;99504.00;;;;2047753;28;20244;-66
2023/07/01 04:57:06;;;;;;;2.53;2.00;;;;;24.10;99501.00;;;;2041877;28;20216;-66
2023/07/01 04:58:06;;;;;;;2.70;1.77;;;;;24.10;99500.00;;;;2063561;28;21183;-66
2023/07/01 04:59:06;;;;;;;2.13;1.70;;;;;24.10;99491.00;;;;2061407;28;20320;-66
2023/07/01 05:00:10;;;;;;;3.30;1.93;;;;;24.10;99498.00;;;;2067235;28;20223;-66
2023/07/01 05:01:10;;;;;;;2.03;1.67;;;;;24.10;99504.00;;;;2062548;28;20261;-66
2023/07/01 05:02:10;;;;;;;3.80;2.10;;;;;24.10;99501.00;;;;2053500;28;20219;-66
2023/07/01 05:03:11;;;;;;;3.27;2.17;;;;;24.10;99502.00;;;;2062490;28;20250;-66
2023/07/01 05:04:11;;;;;;;4.20;2.03;;;;;24.10;99493.00;;;;2056363;28;20593;-66
2023/07/01 05:05:11;;;;;;;3.17;2.10;;;;;24.10;99498.00;;;;2058874;28;20219;-66
2023/07/01 05:06:11;;;;;;;3.10;2.07;;;;;24.10;99496.00;;;;2062784;28;20320;-66
2023/07/01 05:07:12;;;;;;;3.27;1.80;;;;;24.10;99496.00;;;;2053297;28;20215;-66
2023/07/01 05:08:12;;;;;;;4.17;2.20;;;;;24.10;99494.00;;;;2060598;28;20211;-66
2023/07/01 05:09:13;;;;;;;2.23;1.73;;;;;24.10;99487.00;;;;2066710;28;20276;-66